createdAt,value
2024-05-09T00:03:41.381Z,11.50
2024-05-09T00:09:43.507Z,11.30
2024-05-09T00:15:45.522Z,11.20
2024-05-09T00:21:47.482Z,11.40
2024-05-09T00:27:49.396Z,11.80
2024-05-09T00:33:51.561Z,11.80
2024-05-09T00:39:53.633Z,12.10
2024-05-09T00:45:57.495Z,12.00
2024-05-09T00:51:59.807Z,11.80
2024-05-09T00:58:03.163Z,11.80
2024-05-09T01:04:05.456Z,11.80
2024-05-09T01:10:13.954Z,11.60
2024-05-09T01:16:19.444Z,11.50
2024-05-09T01:22:23.691Z,11.40
2024-05-09T01:28:25.627Z,11.30
2024-05-09T01:34:27.561Z,11.30
2024-05-09T01:40:37.079Z,11.30
2024-05-09T01:46:41.603Z,11.30
2024-05-09T01:52:43.560Z,11.20
2024-05-09T01:58:46.461Z,11.20
2024-05-09T02:04:50.021Z,11.20
2024-05-09T02:10:52.231Z,11.10
2024-05-09T02:16:54.316Z,10.80
2024-05-09T02:22:57.627Z,10.60
2024-05-09T02:28:59.883Z,10.70
2024-05-09T02:35:01.986Z,10.70
2024-05-09T02:41:04.237Z,10.60
2024-05-09T02:47:06.510Z,10.70
2024-05-09T02:53:09.522Z,10.60
2024-05-09T02:59:12.090Z,10.60
2024-05-09T03:05:14.088Z,10.60
2024-05-09T03:11:23.607Z,10.30
2024-05-09T03:17:25.912Z,9.90
2024-05-09T03:23:27.979Z,9.90
2024-05-09T03:29:30.146Z,9.70
2024-05-09T03:35:32.254Z,9.70
2024-05-09T03:41:34.367Z,9.90
2024-05-09T03:47:38.292Z,10.00
2024-05-09T03:53:40.453Z,10.10
2024-05-09T03:59:42.440Z,10.10
2024-05-09T04:05:44.831Z,10.60
2024-05-09T04:11:47.066Z,11.50
2024-05-09T04:17:51.773Z,11.70
2024-05-09T04:23:53.818Z,12.70
2024-05-09T04:29:55.775Z,12.70
2024-05-09T04:35:57.686Z,12.20
2024-05-09T04:41:59.738Z,11.90
2024-05-09T04:48:02.335Z,11.70
2024-05-09T04:54:05.592Z,11.50
2024-05-09T05:00:14.728Z,12.00
2024-05-09T05:06:24.152Z,12.60
2024-05-09T05:12:44.989Z,13.30
2024-05-09T05:18:47.070Z,13.80
2024-05-09T05:24:49.082Z,13.40
2024-05-09T05:30:51.061Z,13.10
2024-05-09T05:36:53.020Z,13.20
2024-05-09T05:42:55.019Z,13.10
2024-05-09T05:48:57.045Z,13.30
2024-05-09T05:54:59.304Z,13.40
2024-05-09T06:01:01.350Z,13.10
2024-05-09T06:07:03.468Z,12.80
2024-05-09T06:13:05.739Z,12.80
2024-05-09T06:19:07.900Z,13.00
2024-05-09T06:25:09.850Z,13.20
2024-05-09T06:31:12.507Z,13.40
2024-05-09T06:37:14.433Z,13.90
2024-05-09T06:43:18.959Z,14.60
2024-05-09T06:49:21.869Z,14.90
2024-05-09T06:55:23.861Z,14.80
2024-05-09T07:01:26.126Z,14.40
2024-05-09T07:07:28.201Z,14.60
2024-05-09T07:13:30.366Z,14.80
2024-05-09T07:19:32.614Z,14.50
2024-05-09T07:25:34.678Z,14.90
2024-05-09T07:31:36.660Z,15.10
2024-05-09T07:37:40.900Z,15.20
2024-05-09T07:43:44.426Z,15.30
2024-05-09T07:51:32.578Z,15.40
2024-05-09T07:56:09.865Z,15.20
2024-05-09T08:02:12.702Z,15.50
2024-05-09T08:08:14.681Z,15.70
2024-05-09T08:14:16.634Z,15.60
2024-05-09T08:20:26.870Z,15.80
2024-05-09T08:26:33.171Z,16.10
2024-05-09T08:32:35.635Z,16.30
2024-05-09T08:38:37.625Z,16.40
2024-05-09T08:44:39.722Z,16.40
2024-05-09T08:50:41.892Z,16.60
2024-05-09T08:56:49.016Z,16.90
2024-05-09T09:02:52.165Z,16.90
2024-05-09T09:08:55.637Z,17.00
2024-05-09T09:14:57.556Z,17.10
2024-05-09T09:20:59.678Z,17.40
2024-05-09T09:27:01.631Z,18.20
2024-05-09T09:33:03.760Z,18.40
2024-05-09T09:39:07.081Z,18.10
2024-05-09T09:45:10.301Z,18.90
2024-05-09T09:51:13.814Z,19.70
2024-05-09T09:57:19.398Z,19.50
2024-05-09T10:03:21.655Z,20.00
2024-05-09T10:09:23.811Z,20.20
2024-05-09T10:15:26.066Z,20.60
2024-05-09T10:21:28.171Z,20.90
2024-05-09T10:27:31.271Z,21.00
2024-05-09T10:33:53.151Z,20.50
2024-05-09T10:39:58.007Z,20.20
2024-05-09T10:46:00.311Z,20.30
2024-05-09T10:52:04.271Z,20.50
2024-05-09T10:58:17.578Z,20.40
2024-05-09T11:04:20.211Z,20.00
2024-05-09T11:10:27.814Z,20.20
2024-05-09T11:16:35.619Z,20.50
2024-05-09T11:22:37.954Z,19.60
2024-05-09T11:28:44.211Z,19.60
2024-05-09T11:34:46.267Z,20.10
2024-05-09T11:40:48.253Z,20.70
2024-05-09T11:46:50.411Z,20.40
2024-05-09T11:52:52.418Z,19.40
2024-05-09T11:58:54.796Z,20.00
2024-05-09T12:04:56.872Z,20.70
2024-05-09T12:10:59.026Z,21.10
2024-05-09T12:17:05.705Z,21.20
2024-05-09T12:23:09.956Z,19.80
2024-05-09T12:29:12.631Z,18.50
2024-05-09T12:35:14.897Z,18.20
2024-05-09T12:41:16.873Z,18.20
2024-05-09T12:47:19.408Z,19.20
2024-05-09T12:53:21.484Z,19.70
2024-05-09T12:59:23.456Z,20.20
2024-05-09T13:05:25.583Z,20.30
2024-05-09T13:11:27.803Z,20.60
2024-05-09T13:17:29.837Z,21.20
2024-05-09T13:23:31.889Z,21.20
2024-05-09T13:29:33.843Z,21.10
2024-05-09T13:35:36.305Z,20.60
2024-05-09T13:41:38.440Z,20.30
2024-05-09T13:47:40.635Z,20.70
2024-05-09T13:53:42.962Z,20.90
2024-05-09T13:59:45.054Z,20.00
2024-05-09T14:05:47.711Z,19.70
2024-05-09T14:11:49.954Z,20.50
2024-05-09T14:17:52.023Z,20.50
2024-05-09T14:23:54.720Z,19.90
2024-05-09T14:29:56.775Z,19.90
2024-05-09T14:35:59.006Z,19.40
2024-05-09T14:42:01.087Z,19.20
2024-05-09T14:48:04.158Z,19.60
2024-05-09T14:54:06.308Z,20.20
2024-05-09T15:00:17.323Z,20.40
2024-05-09T15:06:27.605Z,20.10
2024-05-09T15:12:29.570Z,19.60
2024-05-09T15:18:31.775Z,19.80
2024-05-09T15:24:33.962Z,19.60
2024-05-09T15:30:36.729Z,19.60
2024-05-09T15:36:41.174Z,19.60
2024-05-09T15:42:44.900Z,19.80
2024-05-09T15:48:47.243Z,20.20
2024-05-09T15:54:49.350Z,20.50
2024-05-09T16:00:52.448Z,20.50
2024-05-09T16:06:55.223Z,20.10
2024-05-09T16:12:57.400Z,19.60
2024-05-09T16:19:00.454Z,19.50
2024-05-09T16:25:02.510Z,19.80
2024-05-09T16:31:04.820Z,20.10
2024-05-09T16:37:10.369Z,20.00
2024-05-09T16:43:13.428Z,20.00
2024-05-09T16:49:15.653Z,20.00
2024-05-09T16:55:25.360Z,19.90
2024-05-09T17:01:27.491Z,19.80
2024-05-09T17:07:29.532Z,19.00
2024-05-09T17:13:32.552Z,19.10
2024-05-09T17:19:35.110Z,19.20
2024-05-09T17:25:37.265Z,19.40
2024-05-09T17:31:39.306Z,19.20
2024-05-09T17:37:41.406Z,19.00
2024-05-09T17:43:43.307Z,18.80
2024-05-09T17:49:45.307Z,18.70
2024-05-09T17:55:48.812Z,18.60
2024-05-09T18:01:50.841Z,18.40
2024-05-09T18:07:53.013Z,18.20
2024-05-09T18:13:55.238Z,18.10
2024-05-09T18:19:57.393Z,18.00
2024-05-09T18:25:59.629Z,18.00
2024-05-09T18:32:01.665Z,17.90
2024-05-09T18:38:04.132Z,17.80
2024-05-09T18:44:06.205Z,17.70
2024-05-09T18:50:14.633Z,17.50
2024-05-09T18:56:22.703Z,17.40
2024-05-09T19:02:24.843Z,17.40
2024-05-09T19:08:27.151Z,17.30
2024-05-09T19:14:29.254Z,17.20
2024-05-09T19:20:34.561Z,17.20
2024-05-09T19:26:38.061Z,17.10
2024-05-09T19:32:41.251Z,17.00
2024-05-09T19:38:43.383Z,16.80
2024-05-09T19:44:45.327Z,16.70
2024-05-09T19:50:49.768Z,16.60
2024-05-09T19:56:54.730Z,16.40
2024-05-09T20:02:57.208Z,16.40
2024-05-09T20:08:59.822Z,16.30
2024-05-09T20:15:02.059Z,16.00
2024-05-09T20:21:04.408Z,15.90
2024-05-09T20:27:06.587Z,15.60
2024-05-09T20:33:09.699Z,15.40
2024-05-09T20:39:12.105Z,15.20
2024-05-09T20:45:14.085Z,15.00
2024-05-09T20:51:16.042Z,15.20
2024-05-09T20:57:17.942Z,15.20
2024-05-09T21:03:20.006Z,14.90
2024-05-09T21:09:25.696Z,14.90
2024-05-09T21:15:27.653Z,14.90
2024-05-09T21:21:29.634Z,15.00
2024-05-09T21:27:33.723Z,14.60
2024-05-09T21:33:37.346Z,14.60
2024-05-09T21:39:39.359Z,14.70
2024-05-09T21:45:41.458Z,14.60
2024-05-09T21:51:43.514Z,14.40
2024-05-09T21:57:45.499Z,14.30
2024-05-09T22:03:47.752Z,14.30
2024-05-09T22:09:49.925Z,14.40
2024-05-09T22:15:51.925Z,14.40
2024-05-09T22:21:55.502Z,14.30
2024-05-09T22:27:57.559Z,14.10
2024-05-09T22:33:59.595Z,13.90
2024-05-09T22:40:03.972Z,13.50
2024-05-09T22:46:08.501Z,13.70
2024-05-09T22:52:10.649Z,13.80
2024-05-09T22:58:12.775Z,13.70
2024-05-09T23:04:14.828Z,13.70
2024-05-09T23:10:21.706Z,13.70
2024-05-09T23:16:30.154Z,13.30
2024-05-09T23:22:32.165Z,13.00
2024-05-09T23:28:34.246Z,12.90
2024-05-09T23:34:36.403Z,12.70
2024-05-09T23:40:40.801Z,12.90
2024-05-09T23:46:44.066Z,13.10
2024-05-09T23:52:46.060Z,13.10
2024-05-09T23:58:48.356Z,13.10
